Hlavní strana
METAR-TAF:

METAR-TAF

Letiště :

Letecká základna Minot

Minot, Severní Dakota, Spojené státy americké

zeměpisná šířka: 48-25N, zeměpisná délka: 101-21W, výška: 508 m

Aktuální stav počasí

Zpráva byla vytvořena před 1 hodinou a 11 minutami, v 21:56 UTC
Jihojihozápadní vítr 11 kt
Teplota 17°C
Vlhkost vzduchu 39%
Tlak 1022 hPa
Viditelnost: 16.1 km
Jasno

METAR: KMIB 172156Z AUTO 21011KT 10SM CLR 17/03 A3018 RMK AO2 SLP237 T01670027 $

Čas: 18:07 (23:07 UTC)

Předpověď počasí

Zpráva byla vytvořena před 6 hodinami a 7 minutami, v 17:00 UTC
Předpověď platná od 17 v 17 UTC do 18 v 23 UTC
vítr z různých směrů 6 kt
Viditelnost 10 km a více
Skoro jasno ve výšce 4000 ft

TAF: KMIB 171700Z 1717/1823 VRB06KT 9999 FEW040 510043 QNH2986INS TX18/1817Z TN04/1811Z

Stav a předpovědi počasí z více než 4 000 letišť (zprávy METAR a TAF).

Červené a žluté tečky na mapě představují dostupné meteorologické stanice.

Když kurzor umístíte na tečku, zobrazí se název stanice.

Pak kliknutím zobrazíte stav a předpověď počasí.

Chcete-li změnit mapu, kliknutím na zelené tlačítko se znaménkem +mapu přiblížíte, kliknutím na zelené tlačítko se znaménkem – mapu oddálíte a kliknutím na zelené šipky přejdete na sousední mapy.


METAR-TAF: